Time;durP1;ratioP1;P1;durP2;ratioP2;P2;SDS_P1;SDS_P2;PMS_P1;PMS_P2;Temp;Humidity;BMP_temperature;BMP_pressure;BME280_temperature;BME280_humidity;BME280_pressure;Samples;Min_cycle;Max_cycle;Signal;HPM_P1;HPM_P2
2023/11/27 00:00:27;;;;;;;8.13;4.10;;;;;;;-2.16;100.00;100344.16;6305166;22;20083;-89
2023/11/27 00:03:06;;;;;;;5.70;4.07;;;;;;;-2.17;100.00;100342.41;6305526;22;20090;-88
2023/11/27 00:05:33;;;;;;;6.70;3.70;;;;;;;-2.20;100.00;100334.53;6280798;22;20449;-89
2023/11/27 00:08:00;;;;;;;6.97;3.90;;;;;;;-2.14;100.00;100339.88;6306077;22;20011;-88
2023/11/27 00:10:27;;;;;;;7.13;4.00;;;;;;;-2.20;100.00;100332.81;6280668;22;20391;-88
2023/11/27 00:12:58;;;;;;;7.03;4.20;;;;;;;-2.21;100.00;100338.84;6254686;22;20513;-89
2023/11/27 00:15:27;;;;;;;8.37;3.67;;;;;;;-2.29;100.00;100341.22;6281030;22;20094;-88
2023/11/27 00:17:54;;;;;;;6.37;3.40;;;;;;;-2.39;100.00;100334.06;6297281;22;20019;-88
2023/11/27 00:20:22;;;;;;;6.00;3.37;;;;;;;-2.40;100.00;100336.63;6279221;22;20102;-88
2023/11/27 00:22:49;;;;;;;6.23;3.93;;;;;;;-2.48;100.00;100340.72;6279383;22;20144;-88
2023/11/27 00:25:16;;;;;;;5.70;3.17;;;;;;;-2.51;100.00;100344.09;6279696;22;20094;-88
2023/11/27 00:27:43;;;;;;;6.53;3.47;;;;;;;-2.50;100.00;100353.63;6279803;22;20550;-88
2023/11/27 00:30:11;;;;;;;6.67;3.53;;;;;;;-2.50;100.00;100358.78;6279705;22;20506;-88
2023/11/27 00:32:38;;;;;;;7.00;3.40;;;;;;;-2.52;100.00;100352.72;6279114;22;20079;-91
2023/11/27 00:35:06;;;;;;;6.40;3.40;;;;;;;-2.59;100.00;100353.38;6253814;22;20101;-89
2023/11/27 00:37:33;;;;;;;7.73;3.73;;;;;;;-2.63;100.00;100357.56;6279324;22;20094;-88
2023/11/27 00:40:00;;;;;;;5.73;3.33;;;;;;;-2.68;100.00;100351.41;6253501;22;20404;-90
2023/11/27 00:42:27;;;;;;;6.67;3.40;;;;;;;-2.78;100.00;100354.53;6254162;22;20494;-90
2023/11/27 00:44:54;;;;;;;5.20;2.83;;;;;;;-2.83;100.00;100348.38;6279000;22;20530;-89
2023/11/27 00:47:21;;;;;;;8.57;3.70;;;;;;;-2.87;100.00;100338.78;6279246;22;20086;-90
2023/11/27 00:49:48;;;;;;;6.93;3.20;;;;;;;-2.89;100.00;100340.44;6278703;22;20094;-90
2023/11/27 00:52:15;;;;;;;6.90;3.07;;;;;;;-2.93;100.00;100344.66;6279561;22;20087;-89
2023/11/27 00:54:43;;;;;;;4.87;2.93;;;;;;;-2.96;100.00;100343.69;6253974;22;20173;-90
2023/11/27 00:57:10;;;;;;;5.47;3.93;;;;;;;-3.00;100.00;100336.69;6279384;22;20498;-90
2023/11/27 00:59:40;;;;;;;6.57;3.40;;;;;;;-3.08;100.00;100338.19;6304723;22;20083;-89
2023/11/27 01:02:08;;;;;;;7.07;3.70;;;;;;;-3.14;100.00;100339.75;6254606;22;20109;-90
2023/11/27 01:04:39;;;;;;;4.80;2.90;;;;;;;-3.17;100.00;100329.31;6278866;22;20358;-89
2023/11/27 01:07:06;;;;;;;6.63;3.27;;;;;;;-3.08;100.00;100331.31;6278871;22;20408;-89
2023/11/27 01:09:35;;;;;;;5.80;3.50;;;;;;;-3.15;100.00;100325.06;6304637;22;20023;-88
2023/11/27 01:12:03;;;;;;;4.83;3.27;;;;;;;-3.24;100.00;100324.81;6279639;22;20075;-90
2023/11/27 01:14:30;;;;;;;5.00;3.03;;;;;;;-3.27;100.00;100329.03;6253546;22;20095;-89
2023/11/27 01:16:57;;;;;;;5.93;3.00;;;;;;;-3.30;100.00;100327.19;6278692;22;20067;-90
2023/11/27 01:19:24;;;;;;;4.53;3.30;;;;;;;-3.30;100.00;100326.31;6253177;22;20351;-90
2023/11/27 01:21:52;;;;;;;5.37;3.23;;;;;;;-3.26;100.00;100323.03;6278871;22;20098;-90
2023/11/27 01:24:20;;;;;;;4.07;3.03;;;;;;;-3.29;100.00;100316.03;6253953;22;20090;-90
2023/11/27 01:26:47;;;;;;;5.90;3.70;;;;;;;-3.36;100.00;100315.81;6279265;22;20086;-90
2023/11/27 01:29:18;;;;;;;8.10;3.30;;;;;;;-3.41;100.00;100313.97;6279427;22;20019;-92
2023/11/27 01:31:45;;;;;;;5.80;3.40;;;;;;;-3.46;100.00;100314.66;6253860;22;20406;-91
2023/11/27 01:34:12;;;;;;;6.40;3.43;;;;;;;-3.47;100.00;100308.63;6278876;22;20095;-91
2023/11/27 01:36:39;;;;;;;6.67;3.40;;;;;;;-3.43;100.00;100318.22;6278944;22;20091;-91
2023/11/27 01:39:06;;;;;;;5.67;3.50;;;;;;;-3.41;100.00;100313.09;6253385;22;20317;-91
2023/11/27 01:41:33;;;;;;;6.77;3.50;;;;;;;-3.51;100.00;100324.88;6278780;22;20094;-91
2023/11/27 01:44:00;;;;;;;5.00;3.43;;;;;;;-3.62;100.00;100315.88;6278763;22;20090;-92
2023/11/27 01:46:28;;;;;;;5.43;3.23;;;;;;;-3.62;100.00;100312.44;6304713;22;20078;-91
2023/11/27 01:48:56;;;;;;;7.20;3.50;;;;;;;-3.70;100.00;100313.09;6298912;22;20024;-91
2023/11/27 01:51:25;;;;;;;6.13;3.50;;;;;;;-3.79;100.00;100311.91;6253330;22;20098;-91
2023/11/27 01:53:54;;;;;;;8.00;4.13;;;;;;;-3.75;100.00;100309.50;6279058;22;20099;-91
2023/11/27 01:56:22;;;;;;;7.53;3.57;;;;;;;-3.61;100.00;100302.19;6253234;22;20391;-90
2023/11/27 01:58:49;;;;;;;7.33;3.60;;;;;;;-3.79;100.00;100297.28;6304469;22;20098;-91
2023/11/27 02:01:17;;;;;;;6.23;3.00;;;;;;;-3.93;100.00;100282.22;6278540;22;20098;-91
2023/11/27 02:03:44;;;;;;;6.47;3.60;;;;;;;-4.03;100.00;100293.97;6280606;22;20023;-92
2023/11/27 02:06:12;;;;;;;4.50;3.03;;;;;;;-4.10;100.00;100292.91;6280290;22;20034;-91
2023/11/27 02:08:40;;;;;;;3.87;2.97;;;;;;;-4.16;100.00;100297.84;6280582;22;20094;-91
2023/11/27 02:11:07;;;;;;;4.77;3.00;;;;;;;-4.23;100.00;100290.72;6280049;22;20098;-90
2023/11/27 02:13:34;;;;;;;5.17;3.13;;;;;;;-4.32;100.00;100290.44;6280627;22;20090;-91
2023/11/27 02:16:01;;;;;;;5.67;2.90;;;;;;;-4.33;100.00;100286.09;6280130;22;20525;-91
2023/11/27 02:18:28;;;;;;;5.07;3.10;;;;;;;-4.34;100.00;100290.38;6255339;22;20086;-91
2023/11/27 02:21:06;;;;;;;7.30;3.40;;;;;;;-4.30;100.00;100287.06;6280714;22;20082;-91
2023/11/27 02:23:33;;;;;;;5.17;3.37;;;;;;;-4.33;100.00;100288.69;6280563;22;20152;-92
2023/11/27 02:26:00;;;;;;;6.43;3.97;;;;;;;-4.44;100.00;100284.88;6281352;22;20095;-91
2023/11/27 02:28:27;;;;;;;5.60;3.33;;;;;;;-4.48;100.00;100288.16;6307459;22;20125;-91
2023/11/27 02:30:54;;;;;;;8.40;3.33;;;;;;;-4.50;100.00;100293.28;6255957;22;20105;-91
2023/11/27 02:33:21;;;;;;;6.83;4.23;;;;;;;-4.47;100.00;100277.91;6307064;22;20078;-91
2023/11/27 02:35:48;;;;;;;6.53;3.03;;;;;;;-4.47;100.00;100285.63;6256116;22;20094;-92
2023/11/27 02:38:15;;;;;;;4.70;3.27;;;;;;;-4.42;100.00;100278.06;6256622;22;20058;-91
2023/11/27 02:40:42;;;;;;;4.70;2.80;;;;;;;-4.53;100.00;100283.75;6307584;22;20094;-91
2023/11/27 02:43:10;;;;;;;5.20;3.00;;;;;;;-4.54;100.00;100284.56;6281936;22;20165;-91
2023/11/27 02:45:37;;;;;;;4.23;3.00;;;;;;;-4.59;100.00;100280.94;6281647;22;20132;-92
2023/11/27 02:48:04;;;;;;;5.77;3.33;;;;;;;-4.47;100.00;100288.22;6306778;22;20103;-91
2023/11/27 02:50:31;;;;;;;6.43;3.20;;;;;;;-4.43;100.00;100284.94;6281969;22;20094;-92
2023/11/27 02:52:58;;;;;;;6.37;3.50;;;;;;;-4.40;100.00;100281.56;6306735;22;20442;-92
2023/11/27 02:55:27;;;;;;;5.10;3.70;;;;;;;-4.48;100.00;100281.31;6255339;22;20090;-92
2023/11/27 02:57:53;;;;;;;6.70;3.07;;;;;;;-4.50;100.00;100279.50;6280883;22;20110;-90
2023/11/27 03:00:21;;;;;;;7.30;3.33;;;;;;;-4.58;100.00;100272.38;6281017;22;20094;-92
2023/11/27 03:02:48;;;;;;;4.80;3.07;;;;;;;-4.63;100.00;100276.50;6306056;22;20095;-91
2023/11/27 03:05:16;;;;;;;4.73;3.17;;;;;;;-4.66;100.00;100272.94;6280883;22;20098;-91
2023/11/27 03:07:44;;;;;;;9.13;3.73;;;;;;;-4.89;100.00;100269.56;6279462;22;20099;-91
2023/11/27 03:10:12;;;;;;;5.10;2.97;;;;;;;-5.01;100.00;100271.72;6279897;22;20510;-92
2023/11/27 03:12:40;;;;;;;4.50;2.83;;;;;;;-4.97;100.00;100271.88;6280508;22;20141;-91
2023/11/27 03:15:07;;;;;;;5.37;2.87;;;;;;;-4.86;100.00;100270.56;6280053;22;20458;-92
2023/11/27 03:17:34;;;;;;;4.37;2.60;;;;;;;-4.80;100.00;100257.00;6280759;22;20452;-91
2023/11/27 03:20:05;;;;;;;4.73;3.40;;;;;;;-4.93;100.00;100273.75;6256807;22;20102;-92
2023/11/27 03:22:32;;;;;;;6.30;3.13;;;;;;;-4.91;100.00;100266.94;6293209;22;20023;-91
2023/11/27 03:24:59;;;;;;;5.93;2.93;;;;;;;-4.72;100.00;100271.03;6285204;22;20099;-92
2023/11/27 03:27:26;;;;;;;5.47;2.93;;;;;;;-4.78;100.00;100263.13;6255110;22;20015;-92
2023/11/27 03:29:53;;;;;;;4.67;2.57;;;;;;;-4.81;100.00;100263.84;6255061;22;20094;-92
2023/11/27 03:32:20;;;;;;;4.93;3.27;;;;;;;-4.69;100.00;100272.84;6253944;22;20102;-92
2023/11/27 03:34:47;;;;;;;5.10;3.03;;;;;;;-4.81;100.00;100265.56;6255372;22;20094;-92
2023/11/27 03:37:14;;;;;;;5.90;2.90;;;;;;;-4.85;100.00;100269.75;6280913;22;20094;-91
2023/11/27 03:39:41;;;;;;;5.77;3.40;;;;;;;-4.73;100.00;100266.69;6280663;22;20414;-91
2023/11/27 03:42:08;;;;;;;6.03;3.07;;;;;;;-4.67;100.00;100263.47;6255103;22;20102;-91
2023/11/27 03:44:35;;;;;;;4.77;2.87;;;;;;;-4.58;100.00;100267.22;6255358;22;20137;-91
2023/11/27 03:47:02;;;;;;;4.60;2.93;;;;;;;-4.69;100.00;100266.00;6304795;22;20015;-91
2023/11/27 03:49:29;;;;;;;5.87;3.60;;;;;;;-4.79;100.00;100261.38;6279155;22;20098;-92
2023/11/27 03:51:56;;;;;;;7.53;3.90;;;;;;;-4.67;100.00;100266.94;6278943;22;20576;-92
2023/11/27 03:54:23;;;;;;;8.63;3.50;;;;;;;-4.64;100.00;100250.69;6253275;22;20098;-91
2023/11/27 03:56:50;;;;;;;6.43;4.13;;;;;;;-4.76;100.00;100258.00;6278763;22;20087;-91
2023/11/27 03:59:18;;;;;;;7.73;3.30;;;;;;;-4.78;100.00;100249.34;6278726;22;20403;-91
2023/11/27 04:01:45;;;;;;;7.13;3.80;;;;;;;-4.74;100.00;100244.34;6276441;22;20094;-92
2023/11/27 04:04:12;;;;;;;7.40;4.27;;;;;;;-4.70;100.00;100243.63;6278543;22;20098;-92
2023/11/27 04:06:40;;;;;;;6.70;4.27;;;;;;;-4.63;100.00;100247.28;6278653;22;20030;-92
2023/11/27 04:09:06;;;;;;;9.23;4.20;;;;;;;-4.59;100.00;100246.56;6253252;22;20067;-92
2023/11/27 04:11:33;;;;;;;9.63;4.47;;;;;;;-4.55;100.00;100249.28;6278929;22;20383;-91
2023/11/27 04:14:00;;;;;;;11.80;5.00;;;;;;;-4.48;100.00;100242.63;6305306;22;20090;-91
2023/11/27 04:16:27;;;;;;;11.33;6.47;;;;;;;-4.41;100.00;100241.13;6253344;22;20094;-91
2023/11/27 04:18:54;;;;;;;14.90;7.83;;;;;;;-4.49;100.00;100248.63;6278557;22;20089;-92
2023/11/27 04:21:21;;;;;;;17.37;9.73;;;;;;;-4.56;100.00;100241.50;6253590;22;20581;-92
2023/11/27 04:23:48;;;;;;;16.93;8.33;;;;;;;-4.62;100.00;100239.63;6254340;22;20156;-92
2023/11/27 04:26:21;;;;;;;13.13;7.63;;;;;;;-4.58;100.00;100238.00;6278701;22;20470;-91
2023/11/27 04:28:49;;;;;;;15.83;7.90;;;;;;;-4.60;100.00;100230.22;6279596;22;20021;-92
2023/11/27 04:31:15;;;;;;;13.97;7.13;;;;;;;-4.66;100.00;100231.72;6278715;22;20102;-91
2023/11/27 04:33:43;;;;;;;12.17;6.10;;;;;;;-4.71;100.00;100223.81;6279295;22;20396;-92
2023/11/27 04:36:10;;;;;;;12.90;6.20;;;;;;;-4.68;100.00;100220.47;6304394;22;20090;-91
2023/11/27 04:38:37;;;;;;;10.23;5.43;;;;;;;-4.71;100.00;100218.66;6279118;22;20124;-92
2023/11/27 04:41:06;;;;;;;13.97;6.33;;;;;;;-4.70;100.00;100214.41;6253157;22;20403;-92
2023/11/27 04:43:33;;;;;;;9.03;4.83;;;;;;;-4.72;100.00;100214.34;6278986;22;20102;-91
2023/11/27 04:46:00;;;;;;;11.60;6.13;;;;;;;-4.71;100.00;100212.63;6278312;22;20094;-92
2023/11/27 04:48:27;;;;;;;10.80;5.47;;;;;;;-4.66;100.00;100213.66;6278689;22;20070;-92
2023/11/27 04:50:54;;;;;;;12.87;6.00;;;;;;;-4.47;100.00;100212.56;6278143;22;20502;-92
2023/11/27 04:53:21;;;;;;;12.23;5.30;;;;;;;-4.53;100.00;100200.38;6278731;22;20102;-91
2023/11/27 04:55:47;;;;;;;11.90;5.00;;;;;;;-4.62;100.00;100207.81;6278167;22;20466;-92
2023/11/27 04:58:14;;;;;;;12.70;6.20;;;;;;;-4.61;100.00;100200.13;6272295;22;20017;-91
2023/11/27 05:00:41;;;;;;;10.80;4.90;;;;;;;-4.54;100.00;100207.25;6278430;22;20413;-91
2023/11/27 05:03:08;;;;;;;9.63;4.67;;;;;;;-4.54;100.00;100203.75;6278949;22;20448;-91
2023/11/27 05:05:36;;;;;;;10.87;5.80;;;;;;;-4.61;100.00;100206.97;6278125;22;20152;-92
2023/11/27 05:08:04;;;;;;;9.00;4.17;;;;;;;-4.69;100.00;100201.56;6278475;22;20091;-92
2023/11/27 05:10:31;;;;;;;10.40;6.23;;;;;;;-4.62;100.00;100197.50;6252817;22;20096;-92
2023/11/27 05:12:58;;;;;;;9.27;4.73;;;;;;;-4.61;100.00;100199.25;6278193;22;20106;-91
2023/11/27 05:15:25;;;;;;;12.80;5.53;;;;;;;-4.61;100.00;100200.13;6252652;22;20413;-91
2023/11/27 05:17:54;;;;;;;10.37;5.50;;;;;;;-4.52;100.00;100189.22;6278230;22;20090;-92
2023/11/27 05:20:22;;;;;;;8.10;4.87;;;;;;;-4.55;100.00;100194.28;6278255;22;20136;-92
2023/11/27 05:22:49;;;;;;;10.17;4.67;;;;;;;-4.61;100.00;100200.13;6253212;22;20102;-92
2023/11/27 05:25:16;;;;;;;11.13;5.30;;;;;;;-4.63;100.00;100196.59;6278181;22;20094;-92
2023/11/27 05:27:43;;;;;;;12.27;5.87;;;;;;;-4.46;100.00;100193.69;6304482;22;20079;-92
2023/11/27 05:30:11;;;;;;;10.47;5.20;;;;;;;-4.39;100.00;100198.22;6252090;22;20090;-92
2023/11/27 05:32:37;;;;;;;11.70;6.20;;;;;;;-4.42;100.00;100188.69;6303471;22;20436;-91
2023/11/27 05:35:07;;;;;;;12.60;5.30;;;;;;;-4.54;100.00;100186.63;6252800;22;20086;-92
2023/11/27 05:37:34;;;;;;;12.20;4.87;;;;;;;-4.56;100.00;100192.53;6305915;22;20090;-92
2023/11/27 05:40:01;;;;;;;10.87;5.53;;;;;;;-4.55;100.00;100187.41;6280311;22;20098;-92
2023/11/27 05:42:28;;;;;;;12.53;5.27;;;;;;;-4.49;100.00;100189.31;6280791;22;20102;-91
2023/11/27 05:44:59;;;;;;;12.77;6.57;;;;;;;-4.46;100.00;100196.25;6280166;22;20070;-92
2023/11/27 05:47:27;;;;;;;12.70;6.50;;;;;;;-4.34;100.00;100196.69;6306483;22;20098;-92
2023/11/27 05:49:54;;;;;;;13.13;6.47;;;;;;;-4.36;100.00;100188.03;6279567;22;20090;-91
2023/11/27 05:52:21;;;;;;;13.13;6.00;;;;;;;-4.36;100.00;100191.47;6254587;22;20090;-92
2023/11/27 05:54:48;;;;;;;12.10;5.70;;;;;;;-4.37;100.00;100191.41;6254714;22;20019;-92
2023/11/27 05:57:15;;;;;;;13.83;6.57;;;;;;;-4.26;100.00;100183.19;6280380;22;20106;-91
2023/11/27 05:59:42;;;;;;;10.93;5.63;;;;;;;-4.10;100.00;100187.13;6255122;22;20372;-91
2023/11/27 06:02:09;;;;;;;9.33;4.63;;;;;;;-4.00;100.00;100189.16;6255095;22;20095;-92
2023/11/27 06:04:36;;;;;;;9.30;4.77;;;;;;;-4.07;100.00;100188.91;6280589;22;20401;-91
2023/11/27 06:07:03;;;;;;;8.53;4.40;;;;;;;-4.16;100.00;100193.78;6280297;22;20094;-92
2023/11/27 06:09:30;;;;;;;9.47;5.00;;;;;;;-4.27;100.00;100180.56;6305370;22;20140;-92
2023/11/27 06:11:57;;;;;;;8.00;3.70;;;;;;;-4.30;100.00;100183.91;6280457;22;20089;-91
2023/11/27 06:14:24;;;;;;;9.57;4.63;;;;;;;-4.29;100.00;100185.69;6280056;22;20518;-93
2023/11/27 06:16:51;;;;;;;9.67;4.93;;;;;;;-4.01;100.00;100177.09;6253859;22;20097;-92
2023/11/27 06:19:18;;;;;;;9.87;5.27;;;;;;;-3.93;100.00;100173.84;6280245;22;20055;-91
2023/11/27 06:21:45;;;;;;;6.13;4.10;;;;;;;-3.86;100.00;100173.22;6255151;22;20110;-90
2023/11/27 06:24:12;;;;;;;7.37;4.47;;;;;;;-4.06;100.00;100173.47;6280370;22;20581;-91
2023/11/27 06:26:39;;;;;;;8.37;4.17;;;;;;;-4.04;100.00;100165.78;6278837;22;20145;-92
2023/11/27 06:29:06;;;;;;;9.37;4.20;;;;;;;-3.98;100.00;100169.41;6259297;22;20066;-90
2023/11/27 06:31:33;;;;;;;7.23;3.83;;;;;;;-4.05;100.00;100164.91;6318850;22;20042;-90
2023/11/27 06:34:00;;;;;;;7.27;3.70;;;;;;;-4.18;100.00;100165.38;6280136;22;20098;-90
2023/11/27 06:36:28;;;;;;;7.57;4.00;;;;;;;-4.29;100.00;100157.31;6279005;22;20553;-90
2023/11/27 06:38:54;;;;;;;7.33;3.97;;;;;;;-4.32;100.00;100161.50;6279789;22;20098;-91
2023/11/27 06:41:23;;;;;;;7.23;3.97;;;;;;;-4.27;100.00;100157.38;6279601;22;20090;-91
2023/11/27 06:43:51;;;;;;;9.03;3.70;;;;;;;-4.31;100.00;100158.09;6254964;22;20095;-90
2023/11/27 06:46:18;;;;;;;7.83;4.00;;;;;;;-4.28;100.00;100163.34;6279456;22;20094;-91
2023/11/27 06:48:45;;;;;;;8.27;4.40;;;;;;;-4.18;100.00;100155.06;6305266;22;20090;-91
2023/11/27 06:51:12;;;;;;;8.93;4.93;;;;;;;-4.20;100.00;100154.16;6305255;22;20546;-91
2023/11/27 06:53:39;;;;;;;7.73;4.00;;;;;;;-4.19;100.00;100147.28;6280146;22;20372;-90
2023/11/27 06:56:08;;;;;;;7.60;3.90;;;;;;;-4.14;100.00;100150.84;6279753;22;20098;-90
2023/11/27 06:58:35;;;;;;;9.07;4.60;;;;;;;-4.11;100.00;100156.13;6279779;22;20045;-91
2023/11/27 07:01:04;;;;;;;6.70;4.13;;;;;;;-4.21;100.00;100156.66;6279348;22;20094;-90
2023/11/27 07:03:31;;;;;;;6.93;3.30;;;;;;;-4.32;100.00;100148.59;6280088;22;20114;-91
2023/11/27 07:05:58;;;;;;;8.13;3.90;;;;;;;-4.27;100.00;100152.22;6279131;22;20518;-91
2023/11/27 07:08:25;;;;;;;8.27;5.07;;;;;;;-4.16;100.00;100153.41;6279526;22;20035;-91
2023/11/27 07:10:52;;;;;;;5.93;3.93;;;;;;;-4.21;100.00;100152.38;6305310;22;20439;-91
2023/11/27 07:13:23;;;;;;;8.47;4.00;;;;;;;-4.35;100.00;100153.66;6255529;22;20106;-91
2023/11/27 07:15:50;;;;;;;7.13;3.97;;;;;;;-4.36;100.00;100152.81;6254692;22;20094;-91
2023/11/27 07:18:18;;;;;;;10.87;3.73;;;;;;;-4.26;100.00;100141.94;6305558;22;20165;-91
2023/11/27 07:20:48;;;;;;;7.43;4.10;;;;;;;-4.27;100.00;100144.47;6255595;22;20383;-91
2023/11/27 07:23:15;;;;;;;8.20;4.47;;;;;;;-4.13;100.00;100150.91;6279584;22;20090;-91
2023/11/27 07:25:42;;;;;;;6.40;3.83;;;;;;;-4.18;100.00;100144.75;6279040;22;20094;-91
2023/11/27 07:28:11;;;;;;;6.87;3.67;;;;;;;-4.17;100.00;100140.47;6304797;22;20074;-91
2023/11/27 07:30:38;;;;;;;6.80;3.97;;;;;;;-4.07;100.00;100138.19;6279437;22;20091;-91
2023/11/27 07:33:05;;;;;;;6.57;3.90;;;;;;;-4.00;100.00;100139.25;6305149;22;20082;-90
2023/11/27 07:35:32;;;;;;;9.93;3.23;;;;;;;-3.88;100.00;100138.72;6305409;22;20103;-92
2023/11/27 07:37:59;;;;;;;5.47;3.43;;;;;;;-3.86;100.00;100137.09;6280715;22;20089;-92
2023/11/27 07:40:27;;;;;;;5.70;3.40;;;;;;;-3.86;100.00;100127.63;6280284;22;20094;-93
2023/11/27 07:42:54;;;;;;;6.87;3.67;;;;;;;-3.70;100.00;100116.91;6254911;22;20172;-92
2023/11/27 07:45:22;;;;;;;6.67;3.37;;;;;;;-3.60;100.00;100110.28;6279155;22;20090;-93
2023/11/27 07:47:49;;;;;;;7.13;3.40;;;;;;;-3.49;100.00;100103.72;6279781;22;20106;-92
2023/11/27 07:50:19;;;;;;;5.90;3.30;;;;;;;-3.39;100.00;100109.97;6256648;22;20086;-93
2023/11/27 07:52:48;;;;;;;8.57;3.90;;;;;;;-3.59;100.00;100117.19;6279476;22;20019;-92
2023/11/27 07:55:16;;;;;;;5.70;2.90;;;;;;;-3.64;100.00;100126.53;6305403;22;20114;-93
2023/11/27 07:58:03;;;;;;;5.90;3.20;;;;;;;-3.60;100.00;100133.53;6284190;22;20358;-92
2023/11/27 08:00:50;;;;;;;6.70;3.70;;;;;;;-3.49;100.00;100126.94;6301210;22;20073;-93
2023/11/27 08:03:17;;;;;;;6.33;3.50;;;;;;;-3.51;100.00;100131.19;6301007;22;20030;-93
2023/11/27 08:06:04;;;;;;;8.03;4.00;;;;;;;-3.37;100.00;100131.56;6283863;22;20019;-93
2023/11/27 08:08:31;;;;;;;6.30;3.60;;;;;;;-3.36;100.00;100130.75;6279342;22;20075;-91
2023/11/27 08:10:58;;;;;;;5.83;3.40;;;;;;;-3.29;100.00;100124.00;6253599;22;20098;-93
2023/11/27 08:13:25;;;;;;;6.30;3.20;;;;;;;-3.22;100.00;100121.63;6279250;22;20094;-92
2023/11/27 08:15:53;;;;;;;6.60;3.70;;;;;;;-3.13;100.00;100121.88;6279434;22;20495;-92
2023/11/27 08:18:20;;;;;;;7.30;3.73;;;;;;;-3.00;100.00;100112.72;6279344;22;20098;-92
2023/11/27 08:20:49;;;;;;;7.93;3.73;;;;;;;-2.96;100.00;100100.75;6253218;22;20394;-92
2023/11/27 08:23:16;;;;;;;6.73;3.63;;;;;;;-2.90;100.00;100101.78;6253949;22;20098;-92
2023/11/27 08:25:44;;;;;;;6.13;3.73;;;;;;;-2.83;100.00;100110.56;6278744;22;20098;-93
2023/11/27 08:28:11;;;;;;;8.13;4.00;;;;;;;-2.64;100.00;100096.34;6304720;22;20098;-92
2023/11/27 08:30:41;;;;;;;7.40;4.40;;;;;;;-2.67;100.00;100097.16;6278366;22;20027;-91
2023/11/27 08:33:08;;;;;;;6.97;3.73;;;;;;;-2.58;100.00;100094.78;6279488;22;20452;-92
2023/11/27 08:35:36;;;;;;;8.57;4.23;;;;;;;-2.50;100.00;100101.88;6279077;22;20094;-92
2023/11/27 08:38:04;;;;;;;6.43;3.50;;;;;;;-2.42;100.00;100098.59;6253640;22;20129;-92
2023/11/27 08:40:31;;;;;;;7.80;3.63;;;;;;;-2.33;100.00;100093.63;6279500;22;20398;-92
2023/11/27 08:43:00;;;;;;;5.13;3.03;;;;;;;-2.23;100.00;100099.00;6279420;22;20094;-93
2023/11/27 08:45:27;;;;;;;5.60;2.83;;;;;;;-2.18;100.00;100094.81;6279742;22;20086;-92
2023/11/27 08:47:55;;;;;;;5.73;3.63;;;;;;;-2.13;100.00;100095.78;6279012;22;20510;-92
2023/11/27 08:50:24;;;;;;;5.77;3.00;;;;;;;-2.04;100.00;100093.38;6279168;22;20094;-91
2023/11/27 08:52:57;;;;;;;5.70;3.00;;;;;;;-1.94;100.00;100102.22;6279465;22;20448;-92
2023/11/27 08:55:32;;;;;;;7.03;4.07;;;;;;;-1.76;100.00;100087.94;6280009;22;20106;-91
2023/11/27 08:58:02;;;;;;;6.13;3.08;;;;;;;-1.75;100.00;100084.50;6279587;22;20513;-92
2023/11/27 09:00:34;;;;;;;8.13;3.57;;;;;;;-1.68;100.00;100082.00;6279959;22;20090;-92
2023/11/27 09:03:02;;;;;;;6.27;3.33;;;;;;;-1.54;100.00;100083.16;6280251;22;20098;-91
2023/11/27 09:05:33;;;;;;;14.67;7.40;;;;;;;-1.46;100.00;100079.00;6304855;22;20016;-92
2023/11/27 09:08:05;;;;;;;16.43;8.50;;;;;;;-1.31;100.00;100079.28;6280828;22;20094;-92
2023/11/27 09:10:35;;;;;;;18.27;8.77;;;;;;;-1.26;100.00;100072.47;6281535;22;20094;-91
2023/11/27 09:13:05;;;;;;;15.27;8.60;;;;;;;-1.16;100.00;100078.69;6282543;22;20106;-91
2023/11/27 09:15:33;;;;;;;8.67;4.60;;;;;;;-1.09;100.00;100084.81;6283249;22;20090;-90
2023/11/27 09:18:01;;;;;;;6.33;4.20;;;;;;;-0.99;100.00;100089.34;6281782;22;20102;-91
2023/11/27 09:20:28;;;;;;;6.53;4.43;;;;;;;-0.97;100.00;100087.63;6256661;22;20094;-91
2023/11/27 09:22:57;;;;;;;9.87;4.70;;;;;;;-0.89;100.00;100086.91;6282131;22;20518;-90
2023/11/27 09:25:25;;;;;;;9.77;4.67;;;;;;;-0.80;100.00;100083.59;6256808;22;20168;-90
2023/11/27 09:27:53;;;;;;;8.33;4.97;;;;;;;-0.73;100.00;100084.56;6281895;22;20529;-91
2023/11/27 09:30:21;;;;;;;7.60;4.73;;;;;;;-0.58;100.00;100080.50;6281387;22;20103;-93
2023/11/27 09:32:49;;;;;;;6.57;3.80;;;;;;;-0.58;100.00;100082.22;6256548;22;20447;-91
2023/11/27 09:35:17;;;;;;;5.73;3.43;;;;;;;-0.47;100.00;100079.78;6281447;22;20119;-91
2023/11/27 09:37:44;;;;;;;5.67;3.67;;;;;;;-0.51;100.00;100075.38;6292208;22;20022;-94
2023/11/27 09:40:12;;;;;;;5.33;3.10;;;;;;;-0.47;100.00;100072.00;6265824;22;20477;-91
2023/11/27 09:42:40;;;;;;;6.30;3.70;;;;;;;-0.38;100.00;100070.41;6282179;22;20094;-91
2023/11/27 09:45:16;;;;;;;;;;;;;;;-0.33;100.00;100081.72;6283571;22;20090;-92
2023/11/27 09:47:50;;;;;;;5.63;3.23;;;;;;;-0.29;100.00;100082.63;6257152;22;19989;-92
2023/11/27 09:50:20;;;;;;;4.60;3.03;;;;;;;-0.29;100.00;100070.53;6283707;22;20094;-93
2023/11/27 09:52:58;;;;;;;3.80;2.57;;;;;;;-0.21;100.00;100070.63;6258838;22;20102;-93
2023/11/27 09:55:26;;;;;;;5.73;3.23;;;;;;;-0.23;100.00;100068.88;6311996;22;20038;-93
2023/11/27 09:57:57;;;;;;;6.20;3.50;;;;;;;-0.13;100.00;100066.41;6289801;22;20039;-93
2023/11/27 10:00:27;;;;;;;7.63;3.50;;;;;;;-0.14;100.00;100061.22;6272792;22;20047;-94
2023/11/27 10:02:57;;;;;;;5.80;3.30;;;;;;;-0.14;100.00;100059.47;6278420;22;20026;-94
2023/11/27 10:05:37;;;;;;;6.87;3.47;;;;;;;0.03;100.00;100048.44;6312718;22;20015;-94
2023/11/27 10:08:13;;;;;;;5.40;3.17;;;;;;;-0.16;100.00;100048.22;6289365;22;20004;-94
2023/11/27 10:10:51;;;;;;;4.70;3.37;;;;;;;-0.12;100.00;100039.59;6289179;22;20007;-94
